createdAt,value
2022-07-30T00:04:54.634Z,22.73
2022-07-30T00:09:58.354Z,22.27
2022-07-30T00:15:02.099Z,22.47
2022-07-30T00:20:09.382Z,22.74
2022-07-30T00:25:16.363Z,22.17
2022-07-30T00:30:20.232Z,21.68
2022-07-30T00:35:25.220Z,22.18
2022-07-30T00:40:32.618Z,22.33
2022-07-30T00:45:37.488Z,22.48
2022-07-30T00:50:42.954Z,22.35
2022-07-30T00:55:49.356Z,22.52
2022-07-30T01:00:53.501Z,21.24
2022-07-30T01:05:58.667Z,21.33
2022-07-30T01:11:03.265Z,21.74
2022-07-30T01:16:07.337Z,22.09
2022-07-30T01:21:16.764Z,22.40
2022-07-30T01:26:23.614Z,22.51
2022-07-30T01:31:29.281Z,21.53
2022-07-30T01:36:33.829Z,21.33
2022-07-30T01:41:40.789Z,21.61
2022-07-30T01:46:45.375Z,21.97
2022-07-30T01:51:49.996Z,22.18
2022-07-30T01:56:57.886Z,22.10
2022-07-30T02:02:03.257Z,22.33
2022-07-30T02:07:15.868Z,21.77
2022-07-30T02:12:30.091Z,22.07
2022-07-30T02:17:44.307Z,21.53
2022-07-30T02:22:50.255Z,21.71
2022-07-30T02:27:59.232Z,21.60
2022-07-30T02:33:06.763Z,21.19
2022-07-30T02:38:13.079Z,21.63
2022-07-30T02:43:20.851Z,22.07
2022-07-30T02:48:34.641Z,21.76
2022-07-30T02:53:42.152Z,21.40
2022-07-30T02:58:48.240Z,20.96
2022-07-30T03:03:53.935Z,21.77
2022-07-30T03:08:58.440Z,21.89
2022-07-30T03:14:03.928Z,20.61
2022-07-30T03:19:10.120Z,20.88
2022-07-30T03:24:17.438Z,20.31
2022-07-30T03:29:25.807Z,20.55
2022-07-30T03:34:30.619Z,20.74
2022-07-30T03:39:36.362Z,20.78
2022-07-30T03:44:45.846Z,20.58
2022-07-30T03:49:50.315Z,20.86
2022-07-30T03:54:54.466Z,21.17
2022-07-30T04:00:18.480Z,21.24
2022-07-30T04:05:27.391Z,21.30
2022-07-30T04:10:42.368Z,21.05
2022-07-30T04:16:41.572Z,20.41
2022-07-30T04:21:34.685Z,20.47
2022-07-30T04:26:39.531Z,21.19
2022-07-30T04:31:45.249Z,21.07
2022-07-30T04:37:07.752Z,21.56
2022-07-30T04:42:12.827Z,21.32
2022-07-30T04:47:19.650Z,20.69
2022-07-30T04:52:44.488Z,20.90
2022-07-30T04:57:53.522Z,21.21
2022-07-30T05:02:59.345Z,20.70
2022-07-30T05:08:03.771Z,21.06
2022-07-30T05:18:19.226Z,21.70
2022-07-30T05:23:23.929Z,22.43
2022-07-30T05:28:48.463Z,22.35
2022-07-30T05:34:02.807Z,22.24
2022-07-30T05:39:14.174Z,22.87
2022-07-30T05:44:42.520Z,23.06
2022-07-30T05:49:47.864Z,22.76
2022-07-30T05:54:51.787Z,22.76
2022-07-30T06:00:02.279Z,22.95
2022-07-30T06:05:28.314Z,23.68
2022-07-30T06:10:36.071Z,22.96
2022-07-30T06:15:39.913Z,23.35
2022-07-30T06:20:45.081Z,23.66
2022-07-30T06:25:54.110Z,24.12
2022-07-30T06:30:58.184Z,24.25
2022-07-30T06:36:06.612Z,23.88
2022-07-30T06:41:21.922Z,23.63
2022-07-30T06:46:29.412Z,23.64
2022-07-30T06:51:34.608Z,24.34
2022-07-30T06:56:38.692Z,25.26
2022-07-30T07:01:44.896Z,25.54
2022-07-30T07:06:50.774Z,26.52
2022-07-30T07:12:03.742Z,25.95
2022-07-30T07:17:08.644Z,25.92
2022-07-30T07:22:32.409Z,24.88
2022-07-30T07:27:36.366Z,24.67
2022-07-30T07:32:40.439Z,25.29
2022-07-30T07:37:46.151Z,24.45
2022-07-30T07:42:56.898Z,24.89
2022-07-30T07:48:00.865Z,24.84
2022-07-30T07:53:32.193Z,24.80
2022-07-30T07:58:36.330Z,25.38
2022-07-30T08:03:42.348Z,24.74
2022-07-30T08:09:07.193Z,26.00
2022-07-30T08:14:34.305Z,25.77
2022-07-30T08:19:59.706Z,26.39
2022-07-30T08:25:05.582Z,26.93
2022-07-30T08:30:10.342Z,27.77
2022-07-30T08:35:14.933Z,28.03
2022-07-30T08:40:21.305Z,27.70
2022-07-30T08:45:34.768Z,27.73
2022-07-30T08:50:59.597Z,28.23
2022-07-30T08:56:23.145Z,28.86
2022-07-30T09:01:27.014Z,28.62
2022-07-30T09:06:33.164Z,28.51
2022-07-30T09:11:39.737Z,28.24
2022-07-30T09:16:44.899Z,28.52
2022-07-30T09:21:56.657Z,29.00
2022-07-30T09:27:10.221Z,27.44
2022-07-30T09:32:19.656Z,27.95
2022-07-30T09:37:41.929Z,27.13
2022-07-30T09:43:16.121Z,27.90
2022-07-30T09:48:23.728Z,29.18
2022-07-30T09:53:27.192Z,29.73
2022-07-30T09:58:45.673Z,28.93
2022-07-30T10:03:50.844Z,29.88
2022-07-30T10:09:27.201Z,29.03
2022-07-30T10:14:33.957Z,29.23
2022-07-30T10:19:47.245Z,28.76
2022-07-30T10:25:16.029Z,28.38
2022-07-30T10:30:51.718Z,29.52
2022-07-30T10:35:55.844Z,28.79
2022-07-30T10:41:02.829Z,29.65
2022-07-30T10:46:22.757Z,29.29
2022-07-30T10:51:41.442Z,28.45
2022-07-30T10:57:04.242Z,28.48
2022-07-30T11:02:12.241Z,30.73
2022-07-30T11:07:31.885Z,32.52
2022-07-30T11:12:54.654Z,31.75
2022-07-30T11:18:03.147Z,31.87
2022-07-30T11:23:14.292Z,31.89
2022-07-30T11:28:34.959Z,31.53
2022-07-30T11:33:40.165Z,30.89
2022-07-30T11:38:54.624Z,32.15
2022-07-30T11:44:19.596Z,34.97
2022-07-30T11:49:24.543Z,36.20
2022-07-30T11:54:28.180Z,35.59
2022-07-30T11:59:31.813Z,36.58
2022-07-30T12:04:44.168Z,34.07
2022-07-30T12:09:47.738Z,32.51
2022-07-30T12:14:52.012Z,33.12
2022-07-30T12:19:58.226Z,33.27
2022-07-30T12:25:07.686Z,33.48
2022-07-30T12:30:11.460Z,34.67
2022-07-30T12:35:16.408Z,35.43
2022-07-30T12:40:20.145Z,35.41
2022-07-30T12:45:27.086Z,35.62
2022-07-30T12:50:32.019Z,34.64
2022-07-30T12:55:37.548Z,35.19
2022-07-30T13:00:51.151Z,34.13
2022-07-30T13:05:57.207Z,34.96
2022-07-30T13:11:01.655Z,34.56
2022-07-30T13:16:06.445Z,33.89
2022-07-30T13:21:11.435Z,33.40
2022-07-30T13:26:14.938Z,32.62
2022-07-30T13:31:19.341Z,32.23
2022-07-30T13:36:24.889Z,32.61
2022-07-30T13:41:28.610Z,31.96
2022-07-30T13:46:32.214Z,31.51
2022-07-30T13:51:37.165Z,31.18
2022-07-30T13:56:41.610Z,31.53
2022-07-30T14:01:45.250Z,31.22
2022-07-30T14:06:50.238Z,30.79
2022-07-30T14:11:54.196Z,29.40
2022-07-30T14:16:57.747Z,26.91
2022-07-30T14:22:02.798Z,24.00
2022-07-30T14:27:06.457Z,23.81
2022-07-30T14:32:10.007Z,23.71
2022-07-30T14:37:14.854Z,21.19
2022-07-30T14:42:20.608Z,18.63
2022-07-30T14:47:24.080Z,18.37
2022-07-30T14:52:35.114Z,18.72
2022-07-30T14:57:38.919Z,18.70
2022-07-30T15:02:42.609Z,18.79
2022-07-30T15:07:47.729Z,19.13
2022-07-30T15:12:51.288Z,19.56
2022-07-30T15:17:55.405Z,19.86
2022-07-30T15:23:00.604Z,19.79
2022-07-30T15:28:04.288Z,19.58
2022-07-30T15:33:07.780Z,21.20
2022-07-30T15:38:13.602Z,21.21
2022-07-30T15:43:17.632Z,21.19
2022-07-30T15:48:26.472Z,20.82
2022-07-30T15:53:32.223Z,19.94
2022-07-30T15:58:39.222Z,20.93
2022-07-30T16:03:45.299Z,21.07
2022-07-30T16:08:50.114Z,21.27
2022-07-30T16:13:53.809Z,21.60
2022-07-30T16:18:57.413Z,22.05
2022-07-30T16:24:03.317Z,20.88
2022-07-30T16:29:10.731Z,20.78
2022-07-30T16:34:17.276Z,20.29
2022-07-30T16:39:28.656Z,19.64
2022-07-30T16:44:34.304Z,19.50
2022-07-30T16:49:38.004Z,19.64
2022-07-30T16:54:43.006Z,19.36
2022-07-30T16:59:47.952Z,19.35
2022-07-30T17:04:51.658Z,20.16
2022-07-30T17:09:58.638Z,20.67
2022-07-30T17:15:05.524Z,20.95
2022-07-30T17:20:10.177Z,20.87
2022-07-30T17:25:15.827Z,21.37
2022-07-30T17:30:19.982Z,21.65
2022-07-30T17:35:27.071Z,21.43
2022-07-30T18:53:49.467Z,19.11
2022-07-30T18:58:53.294Z,19.32
2022-07-30T19:03:57.137Z,19.94
2022-07-30T19:09:02.205Z,20.26
2022-07-30T19:14:06.158Z,20.50
2022-07-30T19:19:12.907Z,20.50
2022-07-30T19:24:17.917Z,20.59
2022-07-30T19:29:21.672Z,20.04
2022-07-30T19:34:26.490Z,20.61
2022-07-30T19:39:31.875Z,20.23
2022-07-30T19:44:41.069Z,20.18
2022-07-30T19:49:44.905Z,20.33
2022-07-30T19:54:50.132Z,19.97
2022-07-30T20:00:00.198Z,20.12
2022-07-30T20:05:15.944Z,20.33
2022-07-30T20:10:21.150Z,19.90
2022-07-30T20:15:24.981Z,19.93
2022-07-30T20:20:29.156Z,19.89
2022-07-30T20:25:36.968Z,20.29
2022-07-30T20:30:41.816Z,20.83
2022-07-30T20:35:46.015Z,21.08
2022-07-30T20:40:53.846Z,21.04
2022-07-30T20:45:58.484Z,21.13
2022-07-30T20:51:02.387Z,21.28
2022-07-30T20:56:09.326Z,21.35
2022-07-30T21:01:15.609Z,21.35
2022-07-30T21:06:22.401Z,21.25
2022-07-30T21:11:27.658Z,20.90
2022-07-30T21:16:33.948Z,21.31
2022-07-30T21:21:41.669Z,21.50
2022-07-30T21:26:53.999Z,21.31
2022-07-30T21:32:08.991Z,21.56
2022-07-30T21:37:15.640Z,20.95
2022-07-30T21:42:30.316Z,20.51
2022-07-30T21:47:34.303Z,20.41
2022-07-30T21:52:38.508Z,20.86
2022-07-30T21:57:43.526Z,20.31
2022-07-30T22:02:53.155Z,20.37
2022-07-30T22:07:57.879Z,20.10
2022-07-30T22:13:03.043Z,20.02
2022-07-30T22:18:08.016Z,20.22
2022-07-30T22:23:11.855Z,19.63
2022-07-30T22:28:17.706Z,19.43
2022-07-30T22:33:21.575Z,19.95
2022-07-30T22:38:27.195Z,19.98
2022-07-30T22:43:34.110Z,19.53
2022-07-30T22:48:44.781Z,19.92
2022-07-30T22:54:03.000Z,19.54
2022-07-30T22:59:13.680Z,19.73
2022-07-30T23:04:18.300Z,20.02
2022-07-30T23:09:22.212Z,19.56
2022-07-30T23:14:28.819Z,19.33
2022-07-30T23:19:32.887Z,19.85
2022-07-30T23:24:36.633Z,19.43
2022-07-30T23:29:41.617Z,19.80
2022-07-30T23:34:45.374Z,20.19
2022-07-30T23:39:49.054Z,19.82
2022-07-30T23:44:54.128Z,19.48
2022-07-30T23:49:58.756Z,19.91
2022-07-30T23:55:02.408Z,20.32
